createdAt,value
2023-05-05T00:00:29.237Z,34.08
2023-05-05T00:01:00.879Z,33.98
2023-05-05T00:01:32.322Z,34.09
2023-05-05T00:02:03.806Z,33.94
2023-05-05T00:02:35.347Z,34.07
2023-05-05T00:03:06.903Z,34.01
2023-05-05T00:03:38.423Z,34.16
2023-05-05T00:04:09.972Z,34.00
2023-05-05T00:04:41.430Z,34.10
2023-05-05T00:05:12.907Z,33.98
2023-05-05T00:05:44.337Z,34.13
2023-05-05T00:06:15.798Z,33.93
2023-05-05T00:06:47.220Z,34.06
2023-05-05T00:07:18.640Z,33.91
2023-05-05T00:07:50.014Z,34.09
2023-05-05T00:08:21.439Z,34.13
2023-05-05T00:08:52.814Z,33.99
2023-05-05T00:09:24.264Z,34.04
2023-05-05T00:09:55.709Z,34.18
2023-05-05T00:10:27.176Z,34.14
2023-05-05T00:10:58.633Z,34.10
2023-05-05T00:11:30.061Z,34.13
2023-05-05T00:12:01.468Z,34.13
2023-05-05T00:12:32.903Z,34.08
2023-05-05T00:13:04.408Z,34.04
2023-05-05T00:13:35.864Z,34.01
2023-05-05T00:14:07.268Z,34.12
2023-05-05T00:14:38.712Z,34.14
2023-05-05T00:15:10.134Z,34.02
2023-05-05T00:15:41.579Z,34.18
2023-05-05T00:16:13.035Z,34.24
2023-05-05T00:16:44.502Z,34.21
2023-05-05T00:17:16.027Z,34.41
2023-05-05T00:17:47.552Z,34.36
2023-05-05T00:18:19.296Z,34.14
2023-05-05T00:18:50.747Z,34.27
2023-05-05T00:19:22.241Z,34.18
2023-05-05T00:19:53.746Z,34.19
2023-05-05T00:20:25.255Z,34.24
2023-05-05T00:20:56.738Z,34.22
2023-05-05T00:21:28.110Z,34.22
2023-05-05T00:21:59.482Z,34.20
2023-05-05T00:22:32.199Z,34.19
2023-05-05T00:23:03.664Z,34.30
2023-05-05T00:23:35.341Z,34.30
2023-05-05T00:24:06.841Z,34.23
2023-05-05T00:24:38.346Z,34.32
2023-05-05T00:25:09.870Z,34.31
2023-05-05T00:25:41.483Z,34.22
2023-05-05T00:26:12.913Z,34.53
2023-05-05T00:26:44.390Z,34.30
2023-05-05T00:27:15.796Z,34.35
2023-05-05T00:27:47.288Z,34.35
2023-05-05T00:28:18.888Z,34.40
2023-05-05T00:28:50.367Z,34.18
2023-05-05T00:29:21.795Z,34.07
2023-05-05T00:29:53.209Z,34.35
2023-05-05T00:30:24.624Z,34.31
2023-05-05T00:30:56.045Z,34.29
2023-05-05T00:31:27.545Z,34.33
2023-05-05T00:31:59.019Z,34.19
2023-05-05T00:32:30.495Z,34.34
2023-05-05T00:33:02.102Z,34.33
2023-05-05T00:33:33.595Z,34.19
2023-05-05T00:34:05.012Z,34.24
2023-05-05T00:34:36.420Z,34.18
2023-05-05T00:35:07.884Z,34.24
2023-05-05T00:35:39.289Z,34.25
2023-05-05T00:36:10.722Z,34.38
2023-05-05T00:36:42.103Z,34.15
2023-05-05T00:37:13.500Z,34.30
2023-05-05T00:37:45.035Z,34.30
2023-05-05T00:38:16.511Z,34.41
2023-05-05T00:38:48.003Z,34.32
2023-05-05T00:39:19.564Z,34.35
2023-05-05T00:39:50.987Z,34.41
2023-05-05T00:40:22.401Z,34.46
2023-05-05T00:40:53.821Z,34.40
2023-05-05T00:41:25.208Z,34.35
2023-05-05T00:41:56.660Z,34.37
2023-05-05T00:42:28.074Z,34.49
2023-05-05T00:42:59.471Z,34.41
2023-05-05T00:43:33.949Z,34.55
2023-05-05T00:44:05.326Z,34.29
2023-05-05T00:44:36.715Z,34.55
2023-05-05T00:45:08.185Z,34.28
2023-05-05T00:45:39.596Z,34.28
2023-05-05T00:46:11.037Z,34.23
2023-05-05T00:46:42.507Z,34.32
2023-05-05T00:47:14.002Z,34.47
2023-05-05T00:47:45.509Z,34.42
2023-05-05T00:48:17.065Z,34.44
2023-05-05T00:48:48.572Z,34.50
2023-05-05T00:49:20.336Z,34.33
2023-05-05T00:49:51.769Z,34.20
2023-05-05T00:50:23.174Z,34.49
2023-05-05T00:50:54.668Z,34.34
2023-05-05T00:51:26.076Z,34.40
2023-05-05T00:51:57.558Z,34.38
2023-05-05T00:52:28.931Z,34.31
2023-05-05T00:53:00.344Z,34.34
2023-05-05T00:53:31.733Z,34.39
2023-05-05T00:54:03.190Z,34.39
2023-05-05T00:54:34.598Z,34.46
2023-05-05T00:55:05.993Z,34.54
2023-05-05T00:55:37.408Z,34.50
2023-05-05T00:56:08.849Z,34.46
2023-05-05T00:56:40.276Z,34.45
2023-05-05T00:57:11.679Z,34.19
2023-05-05T00:57:43.119Z,34.38
2023-05-05T00:58:14.500Z,34.42
2023-05-05T00:58:45.935Z,34.40
2023-05-05T00:59:17.398Z,34.35
2023-05-05T00:59:48.865Z,34.46
2023-05-05T01:00:20.286Z,34.54
2023-05-05T01:00:51.727Z,34.35
2023-05-05T01:01:23.210Z,34.27
2023-05-05T01:01:54.645Z,34.42
2023-05-05T01:02:26.252Z,34.47
2023-05-05T01:02:57.826Z,34.34
2023-05-05T01:03:29.537Z,34.50
2023-05-05T01:04:01.104Z,34.34
2023-05-05T01:04:32.738Z,34.52
2023-05-05T01:05:04.143Z,34.41
2023-05-05T01:05:35.544Z,34.61
2023-05-05T01:06:06.996Z,34.53
2023-05-05T01:06:38.402Z,34.55
2023-05-05T01:07:09.821Z,34.58
2023-05-05T01:07:41.242Z,34.63
2023-05-05T01:08:12.638Z,34.57
2023-05-05T01:08:44.035Z,34.59
2023-05-05T01:09:15.480Z,34.57
2023-05-05T01:09:46.980Z,34.50
2023-05-05T01:10:20.794Z,34.72
2023-05-05T01:10:52.373Z,34.69
2023-05-05T01:11:23.796Z,34.52
2023-05-05T01:11:55.220Z,34.72
2023-05-05T01:12:29.169Z,34.66
2023-05-05T01:13:00.680Z,34.67
2023-05-05T01:13:32.120Z,34.79
2023-05-05T01:14:03.555Z,34.75
2023-05-05T01:14:35.065Z,34.81
2023-05-05T01:15:06.552Z,34.86
2023-05-05T01:15:37.999Z,34.84
2023-05-05T01:16:09.497Z,34.71
2023-05-05T01:16:41.060Z,34.75
2023-05-05T01:17:12.535Z,34.90
2023-05-05T01:17:44.042Z,34.90
2023-05-05T01:18:15.486Z,35.02
2023-05-05T01:18:46.901Z,34.86
2023-05-05T01:19:18.337Z,34.95
2023-05-05T01:19:49.829Z,34.86
2023-05-05T01:20:21.403Z,34.90
2023-05-05T01:20:52.885Z,34.99
2023-05-05T01:21:24.306Z,35.23
2023-05-05T01:21:55.772Z,34.79
2023-05-05T01:22:27.237Z,34.94
2023-05-05T01:23:01.192Z,34.93
2023-05-05T01:23:32.654Z,35.09
2023-05-05T01:24:04.107Z,35.01
2023-05-05T01:24:35.613Z,34.78
2023-05-05T01:25:06.988Z,35.07
2023-05-05T01:25:38.558Z,35.04
2023-05-05T01:26:09.979Z,35.20
2023-05-05T01:26:41.410Z,35.10
2023-05-05T01:27:12.844Z,35.14
2023-05-05T01:27:44.251Z,35.10
2023-05-05T01:28:15.638Z,35.05
2023-05-05T01:28:47.041Z,35.20
2023-05-05T01:29:18.454Z,35.15
2023-05-05T01:29:49.889Z,35.12
2023-05-05T01:30:21.293Z,35.08
2023-05-05T01:30:52.792Z,35.05
2023-05-05T01:31:24.334Z,35.19
2023-05-05T01:31:55.908Z,34.87
2023-05-05T01:32:27.388Z,35.22
2023-05-05T01:32:58.854Z,34.81
2023-05-05T01:33:30.298Z,34.83
2023-05-05T01:34:04.551Z,34.98
2023-05-05T01:34:36.015Z,34.99
2023-05-05T01:35:07.423Z,35.02
2023-05-05T01:35:38.855Z,34.95
2023-05-05T01:36:10.387Z,34.98
2023-05-05T01:36:41.838Z,34.82
2023-05-05T01:37:13.235Z,34.94
2023-05-05T01:37:44.629Z,34.84
2023-05-05T01:38:16.070Z,34.82
2023-05-05T01:38:47.472Z,34.88
2023-05-05T01:39:18.897Z,34.86
2023-05-05T01:39:50.352Z,34.87
2023-05-05T01:40:21.790Z,34.85
2023-05-05T01:40:53.292Z,34.99
2023-05-05T01:41:24.944Z,34.79
2023-05-05T01:41:56.415Z,34.89
2023-05-05T01:42:27.821Z,34.97
2023-05-05T01:42:59.264Z,34.88
2023-05-05T01:43:30.670Z,34.93
2023-05-05T01:44:02.113Z,35.00
2023-05-05T01:44:33.587Z,34.85
2023-05-05T01:45:04.991Z,34.89
2023-05-05T01:45:36.478Z,34.78
2023-05-05T01:46:10.159Z,34.82
2023-05-05T01:46:41.650Z,34.72
2023-05-05T01:47:13.049Z,34.90
2023-05-05T01:47:44.523Z,34.86
2023-05-05T01:48:15.964Z,34.73
2023-05-05T01:48:47.325Z,34.78
2023-05-05T01:49:18.815Z,34.83
2023-05-05T01:49:50.255Z,34.76
2023-05-05T01:50:21.796Z,34.86
2023-05-05T01:50:53.265Z,34.59
2023-05-05T01:51:24.775Z,34.76
2023-05-05T01:51:56.172Z,34.87
2023-05-05T01:52:27.619Z,34.86
2023-05-05T01:52:59.059Z,34.63
2023-05-05T01:53:30.439Z,34.78
2023-05-05T01:54:01.876Z,34.79
2023-05-05T01:54:33.269Z,34.80
2023-05-05T01:55:04.676Z,35.00
2023-05-05T01:55:36.096Z,34.93
2023-05-05T01:56:07.481Z,34.80
2023-05-05T01:56:38.952Z,34.72
2023-05-05T01:57:10.365Z,34.77
2023-05-05T01:57:41.782Z,34.81
2023-05-05T01:58:13.224Z,34.91
2023-05-05T01:58:44.613Z,34.82
2023-05-05T01:59:16.031Z,34.81
2023-05-05T01:59:47.418Z,34.73
2023-05-05T02:00:18.837Z,34.58
2023-05-05T02:00:50.246Z,34.77
2023-05-05T02:01:21.711Z,34.82
2023-05-05T02:01:53.180Z,34.64
2023-05-05T02:02:24.646Z,34.71
2023-05-05T02:02:56.219Z,34.73
2023-05-05T02:03:27.691Z,34.78
2023-05-05T02:03:59.194Z,34.65
2023-05-05T02:04:30.636Z,34.79
2023-05-05T02:05:02.078Z,34.67
2023-05-05T02:05:33.560Z,34.84
2023-05-05T02:06:04.938Z,34.89
2023-05-05T02:06:36.367Z,34.73
2023-05-05T02:07:07.889Z,35.09
2023-05-05T02:07:39.310Z,34.96
2023-05-05T02:08:10.805Z,34.73
2023-05-05T02:08:42.289Z,34.92
2023-05-05T02:09:13.789Z,34.99
2023-05-05T02:09:45.245Z,34.99
2023-05-05T02:10:16.625Z,35.04
2023-05-05T02:10:48.045Z,34.96
2023-05-05T02:11:19.489Z,34.99
2023-05-05T02:11:50.873Z,34.90
2023-05-05T02:12:22.359Z,35.24
2023-05-05T02:12:53.796Z,34.98
2023-05-05T02:13:25.260Z,34.85
2023-05-05T02:13:56.823Z,35.04
2023-05-05T02:14:28.281Z,34.87
2023-05-05T02:14:59.782Z,35.09
2023-05-05T02:15:31.267Z,35.17
2023-05-05T02:16:02.717Z,35.10
2023-05-05T02:16:34.148Z,35.06
2023-05-05T02:17:05.587Z,35.18
2023-05-05T02:17:37.059Z,35.17
2023-05-05T02:18:08.539Z,35.19
2023-05-05T02:18:39.957Z,35.28
2023-05-05T02:19:11.416Z,35.25
2023-05-05T02:19:42.831Z,35.14
2023-05-05T02:20:14.268Z,35.27
2023-05-05T02:20:45.703Z,35.24
2023-05-05T02:21:17.111Z,35.34
2023-05-05T02:21:48.494Z,35.39
2023-05-05T02:22:19.930Z,35.40
2023-05-05T02:22:51.484Z,35.28
2023-05-05T02:23:22.897Z,35.15
2023-05-05T02:23:54.344Z,35.37
2023-05-05T02:24:27.794Z,35.23
2023-05-05T02:24:59.186Z,35.23
2023-05-05T02:25:30.596Z,35.17
2023-05-05T02:26:01.993Z,35.29
2023-05-05T02:26:33.402Z,35.23
2023-05-05T02:27:04.785Z,35.18
2023-05-05T02:27:36.224Z,35.30
2023-05-05T02:28:07.712Z,35.43
2023-05-05T02:28:39.176Z,35.23
2023-05-05T02:29:10.563Z,35.32
2023-05-05T02:29:41.983Z,35.19
2023-05-05T02:30:13.432Z,35.29
2023-05-05T02:30:44.899Z,35.31
2023-05-05T02:31:16.319Z,35.18
2023-05-05T02:31:47.813Z,35.41
2023-05-05T02:32:19.294Z,35.32
2023-05-05T02:32:50.772Z,35.34
2023-05-05T02:33:22.352Z,35.28
2023-05-05T02:33:53.786Z,35.25
2023-05-05T02:34:25.231Z,35.38
2023-05-05T02:34:56.654Z,35.21
2023-05-05T02:35:28.049Z,35.39
2023-05-05T02:35:59.488Z,35.37
2023-05-05T02:36:30.922Z,35.37
2023-05-05T02:37:02.424Z,35.35
2023-05-05T02:37:33.860Z,35.43
2023-05-05T02:38:05.289Z,35.49
2023-05-05T02:38:36.727Z,35.54
2023-05-05T02:39:08.167Z,35.62
2023-05-05T02:39:39.724Z,35.20
2023-05-05T02:40:11.246Z,35.47
2023-05-05T02:40:42.773Z,35.31
2023-05-05T02:41:14.162Z,35.48
2023-05-05T02:41:45.620Z,35.39
2023-05-05T02:42:17.012Z,35.38
2023-05-05T02:42:48.427Z,35.41
2023-05-05T02:43:19.916Z,35.45
2023-05-05T02:43:51.587Z,35.47
2023-05-05T02:44:22.976Z,35.28
2023-05-05T02:44:54.404Z,35.45
2023-05-05T02:45:25.821Z,35.43
2023-05-05T02:45:57.284Z,35.56
2023-05-05T02:46:28.781Z,35.34
2023-05-05T02:47:00.257Z,35.31
2023-05-05T02:47:31.753Z,35.37
2023-05-05T02:48:03.248Z,35.22
2023-05-05T02:48:34.725Z,35.39
2023-05-05T02:49:06.088Z,35.22
2023-05-05T02:49:37.481Z,35.19
2023-05-05T02:50:09.169Z,35.28
2023-05-05T02:50:40.724Z,35.37
2023-05-05T02:51:12.292Z,35.15
2023-05-05T02:51:43.730Z,35.26
2023-05-05T02:52:15.187Z,35.14
2023-05-05T02:52:46.620Z,35.16
2023-05-05T02:53:18.099Z,35.31
2023-05-05T02:53:49.489Z,35.31
2023-05-05T02:54:20.897Z,35.36
2023-05-05T02:54:52.393Z,35.18
2023-05-05T02:55:23.834Z,35.39
2023-05-05T02:55:55.343Z,35.31
2023-05-05T02:56:26.778Z,35.44
2023-05-05T02:56:58.212Z,35.22
2023-05-05T02:57:29.725Z,35.12
2023-05-05T02:58:01.171Z,35.36
2023-05-05T02:58:32.593Z,35.35
2023-05-05T02:59:03.984Z,35.52
2023-05-05T02:59:35.389Z,35.25
2023-05-05T03:00:06.937Z,35.24
2023-05-05T03:00:38.574Z,35.31
2023-05-05T03:01:10.064Z,35.49
2023-05-05T03:01:41.514Z,35.15
2023-05-05T03:02:13.046Z,35.12
2023-05-05T03:02:44.633Z,35.19
2023-05-05T03:03:16.230Z,34.99
2023-05-05T03:03:47.973Z,35.18
2023-05-05T03:04:19.500Z,34.97
2023-05-05T03:04:50.899Z,35.09
2023-05-05T03:05:22.278Z,35.08
2023-05-05T03:05:53.761Z,35.06
2023-05-05T03:06:25.140Z,34.99
2023-05-05T03:06:56.620Z,35.10
2023-05-05T03:07:28.062Z,35.18
2023-05-05T03:07:59.489Z,35.18
2023-05-05T03:08:31.147Z,35.23
2023-05-05T03:09:05.644Z,35.07
2023-05-05T03:09:37.070Z,35.14
2023-05-05T03:10:08.629Z,35.10
2023-05-05T03:10:40.223Z,35.11
2023-05-05T03:11:11.645Z,35.01
2023-05-05T03:11:43.084Z,34.94
2023-05-05T03:12:14.515Z,35.15
2023-05-05T03:12:45.983Z,34.92
2023-05-05T03:13:17.687Z,34.91
2023-05-05T03:13:49.058Z,34.98
2023-05-05T03:14:20.513Z,34.87
2023-05-05T03:14:51.927Z,35.03
2023-05-05T03:15:23.350Z,34.99
2023-05-05T03:15:54.825Z,35.13
2023-05-05T03:16:26.256Z,34.96
2023-05-05T03:16:57.649Z,34.97
2023-05-05T03:17:29.138Z,35.02
2023-05-05T03:18:00.630Z,34.91
2023-05-05T03:18:32.223Z,34.87
2023-05-05T03:19:03.667Z,34.84
2023-05-05T03:19:35.046Z,34.92
2023-05-05T03:20:06.626Z,35.11
2023-05-05T03:20:38.280Z,35.16
2023-05-05T03:21:09.696Z,35.15
2023-05-05T03:21:41.111Z,35.01
2023-05-05T03:22:12.504Z,35.00
2023-05-05T03:22:43.917Z,34.98
2023-05-05T03:23:15.290Z,35.03
2023-05-05T03:23:46.811Z,35.00
2023-05-05T03:24:18.250Z,35.17
2023-05-05T03:24:49.635Z,35.14
2023-05-05T03:25:21.084Z,35.05
2023-05-05T03:25:52.493Z,35.11
2023-05-05T03:26:23.994Z,35.00
2023-05-05T03:26:55.363Z,35.06
2023-05-05T03:27:26.815Z,34.99
2023-05-05T03:27:58.181Z,35.04
2023-05-05T03:28:29.578Z,35.11
2023-05-05T03:29:01.109Z,35.03
2023-05-05T03:29:32.518Z,35.14
2023-05-05T03:30:03.931Z,34.92
2023-05-05T03:30:35.360Z,35.05
2023-05-05T03:31:06.793Z,34.99
2023-05-05T03:31:38.329Z,35.11
2023-05-05T03:32:09.853Z,35.14
2023-05-05T03:32:41.363Z,34.93
2023-05-05T03:33:12.794Z,35.15
2023-05-05T03:33:46.726Z,34.98
2023-05-05T03:34:18.220Z,35.09
2023-05-05T03:34:49.659Z,35.20
2023-05-05T03:35:21.092Z,35.21
2023-05-05T03:35:52.503Z,34.93
2023-05-05T03:36:23.899Z,35.00
2023-05-05T03:36:55.312Z,35.06
2023-05-05T03:37:26.744Z,35.10
2023-05-05T03:37:58.131Z,35.23
2023-05-05T03:38:29.603Z,35.22
2023-05-05T03:39:00.998Z,35.08
2023-05-05T03:39:32.668Z,35.11
2023-05-05T03:40:07.187Z,35.19
2023-05-05T03:40:44.313Z,35.17
2023-05-05T03:41:16.327Z,35.15
2023-05-05T03:41:47.803Z,35.03
2023-05-05T03:42:19.260Z,35.18
2023-05-05T03:42:50.787Z,35.13
2023-05-05T03:43:22.267Z,35.06
2023-05-05T03:43:53.739Z,35.12
2023-05-05T03:44:25.201Z,35.14
2023-05-05T03:44:56.800Z,35.00
2023-05-05T03:45:28.382Z,35.30
2023-05-05T03:45:59.945Z,35.33
2023-05-05T03:46:31.453Z,35.23
2023-05-05T03:47:03.198Z,35.26
2023-05-05T03:47:34.813Z,35.43
2023-05-05T03:48:06.360Z,35.25
2023-05-05T03:48:37.800Z,35.25
2023-05-05T03:49:09.229Z,35.27
2023-05-05T03:49:40.650Z,35.33
2023-05-05T03:50:12.150Z,35.31
2023-05-05T03:50:43.566Z,35.38
2023-05-05T03:51:14.981Z,35.28
2023-05-05T03:51:46.453Z,35.23
2023-05-05T03:52:17.835Z,35.24
2023-05-05T03:52:49.229Z,35.41
2023-05-05T03:53:20.623Z,35.22
2023-05-05T03:53:52.054Z,35.20
2023-05-05T03:54:23.453Z,35.19
2023-05-05T03:54:54.888Z,35.27
2023-05-05T03:55:26.359Z,35.29
2023-05-05T03:55:57.746Z,35.27
2023-05-05T03:56:29.169Z,35.36
2023-05-05T03:57:00.602Z,35.26
2023-05-05T03:57:32.005Z,35.38
2023-05-05T03:58:03.479Z,35.34
2023-05-05T03:58:34.899Z,35.32
2023-05-05T03:59:06.246Z,35.30
2023-05-05T03:59:37.697Z,35.41
2023-05-05T04:00:09.225Z,35.38
2023-05-05T04:00:40.818Z,35.40
2023-05-05T04:01:12.264Z,35.37
2023-05-05T04:01:43.648Z,35.56
2023-05-05T04:02:17.016Z,35.49
2023-05-05T04:02:49.996Z,35.41
2023-05-05T04:03:21.537Z,35.44
2023-05-05T04:03:53.288Z,35.50
2023-05-05T04:04:24.770Z,35.34
2023-05-05T04:04:56.234Z,35.49
2023-05-05T04:05:27.694Z,35.48
2023-05-05T04:05:59.218Z,35.52
2023-05-05T04:06:30.739Z,35.51
2023-05-05T04:07:02.174Z,35.42
2023-05-05T04:07:33.567Z,35.67
2023-05-05T04:08:04.935Z,35.51
2023-05-05T04:08:36.338Z,35.59
2023-05-05T04:09:07.929Z,35.65
2023-05-05T04:09:39.390Z,35.71
2023-05-05T04:10:10.846Z,35.54
2023-05-05T04:10:42.267Z,35.56
2023-05-05T04:11:13.725Z,35.44
2023-05-05T04:11:45.167Z,35.48
2023-05-05T04:12:16.609Z,35.63
2023-05-05T04:12:48.045Z,35.70
2023-05-05T04:13:19.565Z,35.65
2023-05-05T04:13:50.964Z,35.65
2023-05-05T04:14:22.416Z,35.59
2023-05-05T04:14:53.893Z,35.85
2023-05-05T04:15:25.331Z,35.77
2023-05-05T04:15:56.836Z,35.73
2023-05-05T04:16:28.463Z,35.66
2023-05-05T04:16:59.953Z,35.76
2023-05-05T04:17:31.433Z,35.69
2023-05-05T04:18:02.954Z,35.89
2023-05-05T04:18:34.365Z,35.93
2023-05-05T04:19:05.819Z,35.81
2023-05-05T04:19:37.265Z,36.00
2023-05-05T04:20:08.811Z,35.63
2023-05-05T04:20:40.395Z,35.83
2023-05-05T04:21:11.897Z,35.83
2023-05-05T04:21:43.348Z,35.83
2023-05-05T04:22:14.818Z,35.83
2023-05-05T04:22:46.281Z,35.93
2023-05-05T04:23:17.682Z,35.93
2023-05-05T04:23:49.094Z,35.86
2023-05-05T04:24:20.501Z,35.87
2023-05-05T04:24:51.961Z,35.93
2023-05-05T04:25:23.344Z,35.92
2023-05-05T04:25:54.790Z,35.96
2023-05-05T04:26:26.216Z,35.90
2023-05-05T04:26:57.656Z,36.00
2023-05-05T04:27:29.099Z,35.96
2023-05-05T04:28:00.531Z,36.01
2023-05-05T04:28:31.987Z,35.95
2023-05-05T04:29:03.502Z,35.92
2023-05-05T04:29:34.925Z,35.90
2023-05-05T04:30:06.593Z,36.01
2023-05-05T04:30:38.113Z,35.90
2023-05-05T04:31:09.579Z,36.09
2023-05-05T04:31:41.166Z,36.15
2023-05-05T04:32:12.702Z,36.03
2023-05-05T04:32:44.226Z,36.12
2023-05-05T04:33:15.694Z,36.00
2023-05-05T04:33:47.081Z,36.07
2023-05-05T04:34:18.496Z,36.13
2023-05-05T04:34:49.865Z,35.86
2023-05-05T04:35:21.311Z,36.14
2023-05-05T04:35:52.716Z,36.18
2023-05-05T04:36:24.095Z,36.11
2023-05-05T04:36:55.557Z,36.23
2023-05-05T04:37:27.016Z,36.57
2023-05-05T04:37:58.468Z,36.04
2023-05-05T04:38:29.864Z,36.14
2023-05-05T04:39:01.332Z,36.08
2023-05-05T04:39:32.794Z,35.96
2023-05-05T04:40:04.262Z,36.11
2023-05-05T04:40:35.669Z,36.19
2023-05-05T04:41:07.069Z,36.16
2023-05-05T04:41:38.452Z,36.12
2023-05-05T04:42:09.907Z,36.29
2023-05-05T04:42:41.395Z,36.22
2023-05-05T04:43:12.841Z,36.37
2023-05-05T04:43:44.266Z,36.14
2023-05-05T04:44:15.651Z,36.27
2023-05-05T04:44:47.087Z,36.39
2023-05-05T04:45:18.470Z,36.19
2023-05-05T04:45:49.878Z,36.52
2023-05-05T04:46:21.336Z,36.21
2023-05-05T04:46:52.806Z,36.31
2023-05-05T04:47:24.270Z,36.29
2023-05-05T04:47:55.840Z,36.26
2023-05-05T04:48:27.340Z,36.28
2023-05-05T04:48:58.776Z,36.18
2023-05-05T04:49:30.222Z,36.10
2023-05-05T04:50:01.618Z,36.24
2023-05-05T04:50:33.031Z,36.46
2023-05-05T04:51:04.502Z,36.26
2023-05-05T04:51:35.903Z,36.38
2023-05-05T04:52:07.306Z,36.52
2023-05-05T04:52:38.692Z,36.28
2023-05-05T04:53:10.107Z,36.30
2023-05-05T04:53:41.556Z,36.60
2023-05-05T04:54:12.988Z,36.18
2023-05-05T04:54:44.428Z,36.26
2023-05-05T04:55:15.876Z,36.38
2023-05-05T04:55:47.559Z,36.27
2023-05-05T04:56:19.093Z,36.47
2023-05-05T04:56:50.472Z,36.50
2023-05-05T04:57:21.952Z,36.46
2023-05-05T04:57:53.302Z,36.55
2023-05-05T04:58:24.790Z,36.41
2023-05-05T04:58:56.183Z,36.26
2023-05-05T04:59:27.604Z,36.33
2023-05-05T04:59:59.003Z,36.56
2023-05-05T05:00:30.416Z,36.65
2023-05-05T05:01:01.954Z,36.32
2023-05-05T05:01:33.443Z,36.36
2023-05-05T05:02:08.136Z,36.54
2023-05-05T05:02:39.643Z,36.62
2023-05-05T05:03:11.211Z,36.65
2023-05-05T05:03:42.804Z,36.55
2023-05-05T05:04:14.284Z,36.40
2023-05-05T05:04:45.713Z,36.57
2023-05-05T05:05:17.138Z,36.66
2023-05-05T05:05:48.568Z,36.71
2023-05-05T05:06:19.962Z,36.69
2023-05-05T05:06:51.350Z,36.82
2023-05-05T05:07:22.772Z,36.70
2023-05-05T05:07:54.184Z,36.76
2023-05-05T05:08:25.597Z,36.63
2023-05-05T05:08:57.025Z,36.59
2023-05-05T05:09:31.290Z,36.82
2023-05-05T05:10:02.707Z,36.82
2023-05-05T05:10:34.108Z,36.74
2023-05-05T05:11:05.592Z,36.74
2023-05-05T05:11:37.017Z,36.74
2023-05-05T05:12:08.393Z,36.77
2023-05-05T05:12:39.892Z,36.54
2023-05-05T05:13:12.706Z,36.69
2023-05-05T05:13:44.557Z,36.65
2023-05-05T05:14:16.019Z,36.78
2023-05-05T05:14:47.421Z,36.80
2023-05-05T05:15:18.818Z,36.82
2023-05-05T05:15:53.264Z,36.87
2023-05-05T05:16:24.720Z,36.84
2023-05-05T05:16:56.107Z,36.83
2023-05-05T05:17:27.499Z,36.80
2023-05-05T05:17:58.984Z,36.71
2023-05-05T05:18:30.385Z,36.83
2023-05-05T05:19:02.055Z,36.70
2023-05-05T05:19:33.569Z,36.77
2023-05-05T05:20:05.165Z,36.71
2023-05-05T05:20:36.585Z,36.77
2023-05-05T05:21:08.002Z,36.78
2023-05-05T05:21:39.493Z,36.85
2023-05-05T05:22:10.960Z,36.81
2023-05-05T05:22:42.333Z,36.65
2023-05-05T05:23:13.800Z,36.78
2023-05-05T05:23:45.272Z,36.75
2023-05-05T05:24:16.683Z,36.89
2023-05-05T05:24:48.206Z,37.02
2023-05-05T05:25:19.670Z,36.73
2023-05-05T05:25:51.116Z,37.03
2023-05-05T05:26:22.531Z,36.86
2023-05-05T05:26:53.931Z,36.92
2023-05-05T05:27:25.430Z,36.86
2023-05-05T05:28:09.003Z,36.86
2023-05-05T05:28:41.411Z,36.95
2023-05-05T05:29:12.831Z,36.95
2023-05-05T05:29:44.366Z,37.01
2023-05-05T05:30:15.771Z,36.98
2023-05-05T05:30:47.190Z,36.84
2023-05-05T05:31:18.643Z,36.96
2023-05-05T05:31:50.112Z,37.01
2023-05-05T05:32:21.620Z,36.97
2023-05-05T05:32:53.131Z,36.88
2023-05-05T05:33:24.575Z,36.76
2023-05-05T05:33:55.946Z,36.88
2023-05-05T05:34:27.363Z,36.94
2023-05-05T05:34:58.817Z,37.19
2023-05-05T05:35:30.236Z,36.84
2023-05-05T05:36:01.610Z,36.88
2023-05-05T05:36:33.074Z,36.83
2023-05-05T05:37:04.500Z,36.80
2023-05-05T05:37:35.973Z,36.90
2023-05-05T05:38:07.391Z,36.74
2023-05-05T05:38:38.791Z,37.09
2023-05-05T05:39:10.203Z,36.75
2023-05-05T05:39:43.460Z,36.98
2023-05-05T05:40:15.701Z,36.91
2023-05-05T05:40:47.163Z,36.92
2023-05-05T05:41:18.695Z,36.91
2023-05-05T05:41:50.154Z,36.99
2023-05-05T05:42:21.724Z,36.84
2023-05-05T05:42:53.172Z,36.89
2023-05-05T05:43:24.573Z,37.15
2023-05-05T05:43:55.988Z,36.98
2023-05-05T05:44:30.008Z,36.94
2023-05-05T05:45:01.511Z,37.10
2023-05-05T05:45:33.087Z,36.83
2023-05-05T05:46:05.800Z,36.98
2023-05-05T05:46:38.334Z,37.06
2023-05-05T05:47:09.807Z,37.07
2023-05-05T05:47:41.330Z,37.03
2023-05-05T05:48:12.740Z,36.93
2023-05-05T05:48:44.158Z,37.00
2023-05-05T05:49:15.615Z,37.26
2023-05-05T05:49:47.008Z,37.20
2023-05-05T05:50:18.456Z,37.15
2023-05-05T05:50:49.980Z,36.97
2023-05-05T05:51:21.412Z,37.14
2023-05-05T05:51:52.807Z,37.05
2023-05-05T05:52:24.220Z,37.13
2023-05-05T05:52:55.719Z,37.13
2023-05-05T05:53:27.155Z,37.17
2023-05-05T05:53:59.007Z,37.05
2023-05-05T05:54:30.577Z,37.03
2023-05-05T05:55:02.067Z,37.08
2023-05-05T05:55:33.579Z,37.02
2023-05-05T05:56:05.298Z,37.13
2023-05-05T05:56:36.715Z,37.07
2023-05-05T05:57:08.273Z,37.07
2023-05-05T05:57:39.833Z,37.17
2023-05-05T05:58:11.463Z,36.93
2023-05-05T05:58:43.012Z,37.27
2023-05-05T05:59:14.407Z,36.95
2023-05-05T05:59:45.823Z,37.23
2023-05-05T06:00:17.272Z,37.05
2023-05-05T06:00:48.673Z,36.91
2023-05-05T06:01:20.285Z,37.06
2023-05-05T06:01:51.696Z,36.93
2023-05-05T06:02:23.299Z,37.29
2023-05-05T06:02:54.989Z,37.19
2023-05-05T06:03:26.778Z,37.11
2023-05-05T06:03:58.507Z,37.14
2023-05-05T06:04:30.087Z,36.90
2023-05-05T06:05:01.650Z,37.37
2023-05-05T06:05:33.224Z,37.14
2023-05-05T06:06:04.686Z,37.09
2023-05-05T06:06:36.200Z,37.33
2023-05-05T06:07:07.586Z,37.27
2023-05-05T06:07:38.986Z,37.34
2023-05-05T06:08:10.469Z,37.04
2023-05-05T06:08:41.851Z,37.33
2023-05-05T06:09:13.234Z,37.16
2023-05-05T06:09:44.677Z,37.11
2023-05-05T06:10:27.252Z,37.17
2023-05-05T06:10:59.924Z,37.03
2023-05-05T06:11:31.430Z,37.35
2023-05-05T06:12:03.220Z,37.17
2023-05-05T06:12:34.713Z,37.31
2023-05-05T06:13:06.190Z,37.20
2023-05-05T06:13:37.721Z,37.12
2023-05-05T06:14:09.221Z,37.13
2023-05-05T06:14:40.713Z,37.18
2023-05-05T06:15:12.329Z,37.12
2023-05-05T06:15:43.821Z,36.87
2023-05-05T06:16:15.388Z,37.17
2023-05-05T06:16:46.928Z,37.17
2023-05-05T06:17:18.440Z,37.21
2023-05-05T06:17:50.048Z,37.13
2023-05-05T06:18:21.584Z,37.05
2023-05-05T06:18:53.043Z,37.25
2023-05-05T06:19:24.477Z,37.44
2023-05-05T06:19:55.963Z,37.41
2023-05-05T06:20:27.441Z,37.11
2023-05-05T06:20:58.926Z,37.16
2023-05-05T06:21:30.412Z,37.23
2023-05-05T06:22:01.814Z,37.36
2023-05-05T06:22:33.340Z,37.15
2023-05-05T06:23:04.771Z,37.24
2023-05-05T06:23:38.524Z,37.14
2023-05-05T06:24:10.021Z,37.45
2023-05-05T06:24:41.427Z,37.54
2023-05-05T06:25:12.937Z,37.16
2023-05-05T06:25:44.448Z,37.20
2023-05-05T06:26:15.959Z,37.24
2023-05-05T06:26:47.453Z,37.14
2023-05-05T06:27:18.899Z,37.19
2023-05-05T06:27:50.462Z,37.16
2023-05-05T06:28:24.842Z,37.16
2023-05-05T06:28:56.240Z,37.35
2023-05-05T06:29:27.698Z,37.32
2023-05-05T06:29:59.199Z,37.24
2023-05-05T06:30:30.693Z,37.09
2023-05-05T06:31:02.101Z,37.25
2023-05-05T06:31:33.685Z,37.35
2023-05-05T06:32:05.202Z,37.20
2023-05-05T06:32:36.677Z,37.42
2023-05-05T06:33:08.263Z,37.16
2023-05-05T06:33:39.752Z,37.24
2023-05-05T06:34:11.183Z,37.33
2023-05-05T06:34:42.642Z,37.29
2023-05-05T06:35:14.164Z,37.42
2023-05-05T06:35:45.763Z,37.10
2023-05-05T06:36:17.282Z,37.21
2023-05-05T06:36:48.746Z,37.29
2023-05-05T06:37:20.208Z,37.29
2023-05-05T06:37:51.637Z,37.29
2023-05-05T06:38:23.228Z,37.18
2023-05-05T06:38:54.688Z,37.22
2023-05-05T06:39:26.213Z,37.18
2023-05-05T06:39:57.718Z,37.17
2023-05-05T06:40:29.170Z,37.42
2023-05-05T06:41:00.721Z,37.11
2023-05-05T06:41:32.174Z,37.53
2023-05-05T06:42:03.593Z,37.22
2023-05-05T06:42:35.032Z,37.08
2023-05-05T06:43:06.439Z,37.35
2023-05-05T06:43:37.931Z,37.29
2023-05-05T06:44:09.364Z,37.27
2023-05-05T06:44:40.766Z,37.54
2023-05-05T06:45:12.161Z,37.23
2023-05-05T06:45:43.939Z,37.31
2023-05-05T06:46:15.536Z,37.35
2023-05-05T06:46:46.968Z,37.52